Time;durP1;ratioP1;P1;durP2;ratioP2;P2;SDS_P1;SDS_P2;PMS_P1;PMS_P2;Temp;Humidity;BMP_temperature;BMP_pressure;BME280_temperature;BME280_humidity;BME280_pressure;Samples;Min_cycle;Max_cycle;Signal;HPM_P1;HPM_P2
2023/12/12 00:00:04;;;;;;;8.83;3.40;;;6.80;99.90;;;;;;5074587;28;20218;-78
2023/12/12 00:02:31;;;;;;;6.20;3.53;;;6.70;99.90;;;;;;5074580;28;20222;-78
2023/12/12 00:04:59;;;;;;;9.57;3.60;;;6.60;99.90;;;;;;5075519;28;20197;-77
2023/12/12 00:07:27;;;;;;;9.03;2.77;;;6.60;99.90;;;;;;5056971;28;20270;-77
2023/12/12 00:09:54;;;;;;;10.60;2.57;;;6.60;99.90;;;;;;5068863;28;20223;-79
2023/12/12 00:12:21;;;;;;;10.00;2.67;;;6.60;99.90;;;;;;5055408;28;20214;-79
2023/12/12 00:14:47;;;;;;;12.40;2.73;;;6.50;99.90;;;;;;5068726;28;20217;-78
2023/12/12 00:17:14;;;;;;;8.63;3.30;;;6.50;1.00;;;;;;5075724;28;20248;-78
2023/12/12 00:19:42;;;;;;;5.13;2.80;;;6.50;1.00;;;;;;5063121;28;20224;-79
2023/12/12 00:22:09;;;;;;;6.97;3.00;;;6.50;1.00;;;;;;5074840;28;20198;-79
2023/12/12 00:24:38;;;;;;;6.37;2.40;;;6.50;99.90;;;;;;5075370;28;20206;-78
2023/12/12 00:27:05;;;;;;;5.87;2.57;;;6.50;99.90;;;;;;5072331;28;20233;-79
2023/12/12 00:29:32;;;;;;;9.03;2.63;;;6.50;99.90;;;;;;5070975;28;20688;-79
2023/12/12 00:31:58;;;;;;;5.27;2.60;;;6.50;1.00;;;;;;5072446;28;20202;-77
2023/12/12 00:34:25;;;;;;;4.43;2.33;;;6.50;99.90;;;;;;5064205;28;20206;-78
2023/12/12 00:36:52;;;;;;;5.80;2.30;;;6.50;99.90;;;;;;5074834;28;20214;-77
2023/12/12 00:39:19;;;;;;;6.40;2.30;;;6.50;1.00;;;;;;5075060;28;20209;-79
2023/12/12 00:41:48;;;;;;;5.37;2.27;;;6.50;1.00;;;;;;5074500;28;20206;-79
2023/12/12 00:44:15;;;;;;;5.07;2.20;;;6.40;1.00;;;;;;5074808;28;20206;-79
2023/12/12 00:46:42;;;;;;;7.10;2.57;;;6.40;1.00;;;;;;5075385;28;20266;-79
2023/12/12 00:49:09;;;;;;;8.10;2.50;;;6.40;1.00;;;;;;5072161;28;20202;-77
2023/12/12 00:51:36;;;;;;;4.50;2.47;;;6.40;1.00;;;;;;5075058;28;20550;-77
2023/12/12 00:54:03;;;;;;;9.17;2.80;;;6.40;1.00;;;;;;5074529;28;20212;-79
2023/12/12 00:56:29;;;;;;;8.33;2.37;;;6.50;1.00;;;;;;5075239;28;20218;-79
2023/12/12 00:58:57;;;;;;;5.87;2.40;;;6.40;1.00;;;;;;5070730;28;20208;-79
2023/12/12 01:01:24;;;;;;;5.70;2.00;;;6.40;1.00;;;;;;5075654;28;20218;-79
2023/12/12 01:03:51;;;;;;;6.47;2.00;;;6.40;1.00;;;;;;5061504;28;20295;-79
2023/12/12 01:06:25;;;;;;;6.73;2.37;;;6.30;1.00;;;;;;5065978;28;20201;-79
2023/12/12 01:08:52;;;;;;;7.00;2.27;;;6.30;27.20;;;;;;5062525;28;20198;-79
2023/12/12 01:11:19;;;;;;;9.03;2.77;;;6.30;99.90;;;;;;5066808;28;20231;-79
2023/12/12 01:13:48;;;;;;;8.90;2.63;;;6.30;99.90;;;;;;5055595;28;20582;-78
2023/12/12 01:16:16;;;;;;;9.27;3.03;;;6.20;99.90;;;;;;5067926;28;20223;-79
2023/12/12 01:18:43;;;;;;;10.17;3.47;;;6.20;99.90;;;;;;5078122;28;20202;-77
2023/12/12 01:21:09;;;;;;;4.90;2.80;;;6.20;99.90;;;;;;5079282;28;20722;-77
2023/12/12 01:23:49;;;;;;;5.90;2.87;;;6.10;99.90;;;;;;5078613;28;20202;-79
2023/12/12 01:26:16;;;;;;;7.60;2.70;;;6.10;99.90;;;;;;5071535;28;20198;-77
2023/12/12 01:28:43;;;;;;;7.30;2.57;;;6.10;99.90;;;;;;5078634;28;20204;-79
2023/12/12 01:31:10;;;;;;;5.60;2.73;;;6.20;99.90;;;;;;5079017;28;20419;-79
2023/12/12 01:33:38;;;;;;;5.83;2.87;;;6.20;99.90;;;;;;5078644;28;20198;-79
2023/12/12 01:36:06;;;;;;;7.63;3.13;;;6.20;1.00;;;;;;5079022;28;20214;-79
2023/12/12 01:38:32;;;;;;;7.13;3.63;;;6.20;10.40;;;;;;5065970;28;20203;-76
2023/12/12 01:40:59;;;;;;;6.57;3.23;;;6.20;1.00;;;;;;5073149;28;20230;-77
2023/12/12 01:43:28;;;;;;;7.03;2.93;;;6.20;1.00;;;;;;5072637;28;20206;-79
2023/12/12 01:45:56;;;;;;;9.23;2.73;;;6.10;21.80;;;;;;5077816;28;20601;-79
2023/12/12 01:48:24;;;;;;;9.77;4.00;;;6.20;99.90;;;;;;5074632;28;20198;-78
2023/12/12 01:50:52;;;;;;;7.90;3.47;;;6.10;99.90;;;;;;5077565;28;20230;-79
2023/12/12 01:53:23;;;;;;;7.07;3.10;;;6.10;99.90;;;;;;5068386;28;20211;-78
2023/12/12 01:55:52;;;;;;;7.80;2.83;;;6.10;99.90;;;;;;5077811;28;20633;-77
2023/12/12 01:58:19;;;;;;;9.37;3.43;;;6.10;1.00;;;;;;5077877;28;20199;-79
2023/12/12 02:00:47;;;;;;;7.23;2.87;;;6.20;99.90;;;;;;5077977;28;20579;-79
2023/12/12 02:03:14;;;;;;;7.03;3.23;;;6.00;1.00;;;;;;5078176;28;20206;-78
2023/12/12 02:05:43;;;;;;;12.03;3.87;;;5.90;1.00;;;;;;5077795;28;20199;-79
2023/12/12 02:08:11;;;;;;;7.20;3.60;;;6.00;1.00;;;;;;5068172;28;20202;-79
2023/12/12 02:10:38;;;;;;;16.57;5.57;;;6.00;1.00;;;;;;5066193;28;20223;-79
2023/12/12 02:13:05;;;;;;;9.03;3.57;;;5.90;99.90;;;;;;5077296;28;20275;-78
2023/12/12 02:15:32;;;;;;;8.20;3.20;;;5.90;99.90;;;;;;5077386;28;20195;-79
2023/12/12 02:17:58;;;;;;;8.23;3.20;;;5.80;1.00;;;;;;5077724;28;20226;-79
2023/12/12 02:20:25;;;;;;;9.20;3.23;;;5.90;1.00;;;;;;5077557;28;20221;-79
2023/12/12 02:22:53;;;;;;;7.30;3.57;;;5.80;1.00;;;;;;5077597;28;20809;-78
2023/12/12 02:25:20;;;;;;;13.80;5.07;;;5.80;88.80;;;;;;5057044;28;20423;-78
2023/12/12 02:27:47;;;;;;;8.63;3.70;;;5.80;99.90;;;;;;5075861;28;20566;-78
2023/12/12 02:30:16;;;;;;;6.93;3.77;;;5.60;99.90;;;;;;5077822;28;20217;-79
2023/12/12 02:32:43;;;;;;;12.53;3.60;;;5.50;99.90;;;;;;5077180;28;20210;-77
2023/12/12 02:35:10;;;;;;;10.33;3.63;;;5.50;1.00;;;;;;5072239;28;20601;-79
2023/12/12 02:37:36;;;;;;;7.93;3.80;;;5.50;1.00;;;;;;5077489;28;20683;-79
2023/12/12 02:40:06;;;;;;;8.03;4.03;;;5.40;99.90;;;;;;5077074;28;20294;-78
2023/12/12 02:42:32;;;;;;;8.50;3.70;;;5.30;99.90;;;;;;5077235;28;20209;-77
2023/12/12 02:44:59;;;;;;;8.67;3.87;;;5.30;1.00;;;;;;5076875;28;20194;-79
2023/12/12 02:47:26;;;;;;;8.40;3.83;;;5.30;1.00;;;;;;5077135;28;20202;-79
2023/12/12 02:49:53;;;;;;;9.30;3.77;;;5.20;1.00;;;;;;5076704;28;20244;-79
2023/12/12 02:52:20;;;;;;;9.60;4.23;;;5.20;1.00;;;;;;5076723;28;20194;-79
2023/12/12 02:54:46;;;;;;;8.27;3.90;;;5.20;1.00;;;;;;5076830;28;20202;-79
2023/12/12 02:57:14;;;;;;;10.20;4.10;;;5.10;1.00;;;;;;5067735;28;20233;-79
2023/12/12 02:59:41;;;;;;;9.33;4.30;;;5.00;1.00;;;;;;5068686;28;20218;-79
2023/12/12 03:02:08;;;;;;;10.83;3.93;;;5.00;1.00;;;;;;5062147;28;20198;-79
2023/12/12 03:04:35;;;;;;;7.07;3.97;;;4.80;1.00;;;;;;5076964;28;20187;-78
2023/12/12 03:07:01;;;;;;;9.13;4.20;;;4.80;1.00;;;;;;5076741;28;20194;-78
2023/12/12 03:09:28;;;;;;;10.17;4.50;;;4.70;1.00;;;;;;5070711;28;20212;-76
2023/12/12 03:11:56;;;;;;;7.93;4.63;;;4.70;7.30;;;;;;5072180;28;20202;-77
2023/12/12 03:14:28;;;;;;;11.83;4.63;;;4.50;1.00;;;;;;5076465;28;20210;-79
2023/12/12 03:16:56;;;;;;;9.40;4.50;;;4.50;99.90;;;;;;5067217;28;20214;-79
2023/12/12 03:19:23;;;;;;;11.90;4.50;;;4.70;99.90;;;;;;5076093;28;20204;-78
2023/12/12 03:21:49;;;;;;;7.30;4.07;;;4.50;99.90;;;;;;5075324;28;20252;-79
2023/12/12 03:24:17;;;;;;;11.43;4.70;;;4.50;99.90;;;;;;5071198;28;20219;-79
2023/12/12 03:26:44;;;;;;;11.63;5.37;;;4.50;99.90;;;;;;5057630;28;20290;-78
2023/12/12 03:29:11;;;;;;;9.27;4.23;;;4.40;99.90;;;;;;5060983;28;20228;-77
2023/12/12 03:31:39;;;;;;;7.33;4.37;;;4.40;99.90;;;;;;5076766;28;20563;-77
2023/12/12 03:34:07;;;;;;;8.10;4.40;;;4.40;99.90;;;;;;5076438;28;20331;-79
2023/12/12 03:36:34;;;;;;;9.07;4.47;;;4.40;99.90;;;;;;5075696;28;20289;-79
2023/12/12 03:39:01;;;;;;;16.90;7.23;;;4.40;99.90;;;;;;5075330;28;20208;-78
2023/12/12 03:41:29;;;;;;;34.30;17.80;;;4.40;99.90;;;;;;5071809;28;20258;-79
2023/12/12 03:43:56;;;;;;;13.90;7.13;;;4.40;99.90;;;;;;5056092;28;20217;-78
2023/12/12 03:46:22;;;;;;;8.67;4.70;;;4.40;99.90;;;;;;5071990;28;20198;-79
2023/12/12 03:48:51;;;;;;;15.97;5.30;;;4.60;99.90;;;;;;5057917;28;20203;-79
2023/12/12 03:51:17;;;;;;;14.47;5.00;;;4.70;99.90;;;;;;5076339;28;20234;-77
2023/12/12 03:53:44;;;;;;;10.13;4.53;;;4.60;99.90;;;;;;5075333;28;20208;-79
2023/12/12 03:56:11;;;;;;;9.00;4.27;;;4.60;99.90;;;;;;5071047;28;20576;-77
2023/12/12 03:58:38;;;;;;;10.20;4.90;;;4.70;99.90;;;;;;5056392;28;20231;-77
2023/12/12 04:01:06;;;;;;;9.83;4.67;;;4.90;99.90;;;;;;5055121;28;20227;-79
2023/12/12 04:03:33;;;;;;;8.83;4.53;;;4.70;99.90;;;;;;5055783;28;20622;-78
2023/12/12 04:06:03;;;;;;;8.70;4.23;;;5.00;99.90;;;;;;5058504;28;20202;-79
2023/12/12 04:08:30;;;;;;;11.23;5.13;;;5.00;99.90;;;;;;5075582;28;20198;-77
2023/12/12 04:10:57;;;;;;;12.97;4.13;;;5.10;99.90;;;;;;5075595;28;20218;-78
2023/12/12 04:13:24;;;;;;;10.63;4.63;;;5.00;99.90;;;;;;5069113;28;20573;-78
2023/12/12 04:15:50;;;;;;;14.50;5.53;;;5.10;99.90;;;;;;5073256;28;20213;-77
2023/12/12 04:18:17;;;;;;;13.90;5.20;;;5.10;99.90;;;;;;5065632;28;20230;-80
2023/12/12 04:20:44;;;;;;;13.60;4.90;;;5.00;99.90;;;;;;5070248;28;20695;-80
2023/12/12 04:23:12;;;;;;;12.93;4.00;;;5.10;99.90;;;;;;5075566;28;20221;-78
2023/12/12 04:25:39;;;;;;;17.53;7.93;;;5.10;99.90;;;;;;5075812;28;20563;-77
2023/12/12 04:28:06;;;;;;;12.77;5.03;;;5.10;99.90;;;;;;5076212;28;20687;-80
2023/12/12 04:30:33;;;;;;;7.73;4.23;;;5.10;99.90;;;;;;5076000;28;20218;-78
2023/12/12 04:33:00;;;;;;;18.37;14.93;;;5.20;99.90;;;;;;5075300;28;20270;-79
2023/12/12 04:35:27;;;;;;;11.67;5.10;;;5.10;99.90;;;;;;5076191;28;20203;-80
2023/12/12 04:37:53;;;;;;;11.77;4.87;;;5.00;99.90;;;;;;5076432;28;20303;-78
2023/12/12 04:40:27;;;;;;;8.33;4.10;;;5.10;99.90;;;;;;5075575;28;20210;-79
2023/12/12 04:42:53;;;;;;;7.93;3.73;;;4.80;99.90;;;;;;5075481;28;20214;-78
2023/12/12 04:45:20;;;;;;;9.13;4.43;;;4.70;99.90;;;;;;5076002;28;20205;-80
2023/12/12 04:47:47;;;;;;;7.90;4.40;;;4.60;99.90;;;;;;5075697;28;20194;-80
2023/12/12 04:50:14;;;;;;;9.43;3.87;;;4.40;99.90;;;;;;5075363;28;20226;-80
2023/12/12 04:52:41;;;;;;;6.87;3.93;;;4.30;99.90;;;;;;5075563;28;20206;-80
2023/12/12 04:55:08;;;;;;;8.93;3.77;;;4.20;99.90;;;;;;5076404;28;20208;-80
2023/12/12 04:57:36;;;;;;;9.67;4.07;;;4.20;99.90;;;;;;5075631;28;20228;-80
2023/12/12 05:00:04;;;;;;;7.83;4.60;;;4.10;99.90;;;;;;5075972;28;20222;-79
2023/12/12 05:02:36;;;;;;;7.97;3.80;;;3.90;99.90;;;;;;5076254;28;20635;-80
2023/12/12 05:05:03;;;;;;;9.23;3.80;;;3.90;99.90;;;;;;5076663;28;20270;-80
2023/12/12 05:07:30;;;;;;;12.30;4.07;;;3.90;99.90;;;;;;5076176;28;20201;-80
2023/12/12 05:09:57;;;;;;;7.80;4.00;;;3.80;99.90;;;;;;5075851;28;20226;-79
2023/12/12 05:12:24;;;;;;;7.47;3.80;;;3.90;99.90;;;;;;5076254;28;20205;-80
2023/12/12 05:14:52;;;;;;;10.67;4.10;;;4.20;99.90;;;;;;5076137;28;20240;-80
2023/12/12 05:17:19;;;;;;;7.33;4.27;;;4.10;99.90;;;;;;5076514;28;20218;-79
2023/12/12 05:19:46;;;;;;;7.43;4.63;;;3.90;99.90;;;;;;5076119;28;20222;-80
2023/12/12 05:22:13;;;;;;;10.57;4.33;;;4.10;99.90;;;;;;5075663;28;20213;-80
2023/12/12 05:24:40;;;;;;;12.13;4.53;;;3.90;99.90;;;;;;5075709;28;20209;-78
2023/12/12 05:27:06;;;;;;;9.33;4.37;;;4.10;99.90;;;;;;5075634;28;20209;-78
2023/12/12 05:29:33;;;;;;;8.50;4.73;;;4.00;99.90;;;;;;5075800;28;20222;-79
2023/12/12 05:32:01;;;;;;;10.20;4.20;;;4.20;99.90;;;;;;5076208;28;20208;-80
2023/12/12 05:34:28;;;;;;;11.60;6.13;;;4.30;99.90;;;;;;5076341;28;20206;-80
2023/12/12 05:36:55;;;;;;;9.90;5.27;;;4.30;99.90;;;;;;5076040;28;20203;-80
2023/12/12 05:39:22;;;;;;;11.33;4.60;;;4.30;99.90;;;;;;5075607;28;20263;-80
2023/12/12 05:41:49;;;;;;;7.87;4.33;;;4.30;99.90;;;;;;5076227;28;20202;-80
2023/12/12 05:44:16;;;;;;;7.77;4.07;;;4.50;99.90;;;;;;5076732;28;20427;-80
2023/12/12 05:46:42;;;;;;;12.17;4.90;;;4.50;99.90;;;;;;5076561;28;20285;-80
2023/12/12 05:49:11;;;;;;;12.20;4.60;;;4.40;99.90;;;;;;5075889;28;20203;-79
2023/12/12 05:51:39;;;;;;;11.37;5.00;;;4.40;99.90;;;;;;5076092;28;20625;-79
2023/12/12 05:54:06;;;;;;;11.23;4.80;;;4.40;99.90;;;;;;5076382;28;20642;-78
2023/12/12 05:56:33;;;;;;;12.73;4.80;;;4.50;99.90;;;;;;5076123;28;20206;-80
2023/12/12 05:59:01;;;;;;;11.50;4.67;;;4.40;99.90;;;;;;5075714;28;20221;-80
2023/12/12 06:01:27;;;;;;;10.43;4.53;;;4.40;99.90;;;;;;5078073;28;20257;-80
2023/12/12 06:03:54;;;;;;;21.40;4.83;;;4.30;99.90;;;;;;5072396;28;20203;-80
2023/12/12 06:06:22;;;;;;;12.20;4.93;;;4.40;99.90;;;;;;5063618;28;20201;-79
2023/12/12 06:08:51;;;;;;;11.00;4.77;;;4.30;99.90;;;;;;5079142;28;20204;-79
2023/12/12 06:11:20;;;;;;;10.37;4.97;;;4.40;99.90;;;;;;5078412;28;20275;-79
2023/12/12 06:13:46;;;;;;;10.23;4.97;;;4.40;99.90;;;;;;5078748;28;20632;-80
2023/12/12 06:16:13;;;;;;;11.03;4.70;;;4.40;99.90;;;;;;5079463;28;20239;-79
2023/12/12 06:18:40;;;;;;;8.03;4.60;;;4.50;99.90;;;;;;5078679;28;20220;-80
2023/12/12 06:21:07;;;;;;;11.53;4.73;;;4.50;99.90;;;;;;5078029;28;20226;-80
2023/12/12 06:23:35;;;;;;;10.40;4.37;;;4.40;99.90;;;;;;5079669;28;20198;-79
2023/12/12 06:26:03;;;;;;;9.13;4.77;;;4.60;99.90;;;;;;5079097;28;20213;-80
2023/12/12 06:28:30;;;;;;;7.60;4.40;;;4.60;99.90;;;;;;5078935;28;20661;-80
2023/12/12 06:30:57;;;;;;;9.60;4.50;;;4.70;99.90;;;;;;5078731;28;20657;-80
2023/12/12 06:33:27;;;;;;;7.83;4.30;;;4.80;99.90;;;;;;5078554;28;20198;-79
2023/12/12 06:35:54;;;;;;;9.10;3.97;;;4.70;99.90;;;;;;5079070;28;20204;-78
2023/12/12 06:38:21;;;;;;;11.83;6.07;;;4.80;99.90;;;;;;5078618;28;20668;-80
2023/12/12 06:40:49;;;;;;;7.93;4.10;;;4.90;99.90;;;;;;5079282;28;20219;-80
2023/12/12 06:43:16;;;;;;;8.20;4.50;;;4.90;99.90;;;;;;5079083;28;20202;-80
2023/12/12 06:45:42;;;;;;;10.20;4.40;;;4.90;99.90;;;;;;5080312;28;20675;-80
2023/12/12 06:48:09;;;;;;;9.20;4.53;;;4.90;99.90;;;;;;5079433;28;20656;-80
2023/12/12 06:50:36;;;;;;;7.33;4.07;;;4.80;99.90;;;;;;5079512;28;20734;-80
2023/12/12 06:53:04;;;;;;;8.63;4.03;;;4.90;99.90;;;;;;5079397;28;20218;-79
2023/12/12 06:55:31;;;;;;;9.30;4.43;;;4.90;99.90;;;;;;5077878;28;20208;-79
2023/12/12 06:57:59;;;;;;;9.70;4.13;;;4.90;99.90;;;;;;5078437;28;20221;-80
2023/12/12 07:00:26;;;;;;;11.67;4.37;;;5.10;99.90;;;;;;5079073;28;20220;-80
2023/12/12 07:02:52;;;;;;;8.27;4.13;;;5.00;99.90;;;;;;5079151;28;20229;-80
2023/12/12 07:05:19;;;;;;;7.60;4.60;;;5.10;99.90;;;;;;5078937;28;20293;-80
2023/12/12 07:07:47;;;;;;;10.20;4.90;;;5.10;99.90;;;;;;5078725;28;20202;-80
2023/12/12 07:10:16;;;;;;;11.23;4.43;;;5.10;99.90;;;;;;5065215;28;20269;-80
2023/12/12 07:12:42;;;;;;;9.00;3.90;;;5.00;99.90;;;;;;5078081;28;20203;-79
2023/12/12 07:15:12;;;;;;;8.40;5.20;;;5.20;99.90;;;;;;5077740;28;20213;-81
2023/12/12 07:17:40;;;;;;;11.20;4.43;;;5.20;99.90;;;;;;5076581;28;20202;-81
2023/12/12 07:20:11;;;;;;;8.57;4.50;;;5.20;99.90;;;;;;5075907;28;20577;-80
2023/12/12 07:22:38;;;;;;;9.03;4.37;;;5.30;99.90;;;;;;5075849;28;20566;-78
2023/12/12 07:25:05;;;;;;;8.27;4.73;;;5.20;99.90;;;;;;5077278;28;20202;-80
2023/12/12 07:27:32;;;;;;;7.67;4.37;;;5.30;99.90;;;;;;5077629;28;20646;-79
2023/12/12 07:29:59;;;;;;;8.77;4.03;;;5.30;99.90;;;;;;5077859;28;20261;-80
2023/12/12 07:32:27;;;;;;;12.47;4.50;;;5.40;99.90;;;;;;5078038;28;20265;-80
2023/12/12 07:34:54;;;;;;;6.73;4.30;;;5.20;99.90;;;;;;5078118;28;20186;-79
2023/12/12 07:37:21;;;;;;;10.80;4.17;;;5.20;99.90;;;;;;5077996;28;20225;-79
2023/12/12 07:39:48;;;;;;;7.63;4.37;;;5.10;99.90;;;;;;5077326;28;20226;-79
2023/12/12 07:42:15;;;;;;;8.47;4.70;;;5.20;99.90;;;;;;5076269;28;20277;-78
2023/12/12 07:44:42;;;;;;;9.37;4.63;;;5.20;99.90;;;;;;5077404;28;20202;-80
2023/12/12 07:47:09;;;;;;;11.90;5.50;;;5.20;99.90;;;;;;5074898;28;20676;-78
2023/12/12 07:49:37;;;;;;;7.67;4.57;;;5.20;99.90;;;;;;5065919;28;20231;-79
2023/12/12 07:52:04;;;;;;;8.60;4.67;;;5.30;99.90;;;;;;5065035;28;20199;-77
2023/12/12 07:54:31;;;;;;;10.60;5.07;;;5.40;99.90;;;;;;5057909;28;20206;-78
2023/12/12 07:56:58;;;;;;;7.50;4.50;;;5.40;99.90;;;;;;5059491;28;20202;-79
2023/12/12 07:59:25;;;;;;;8.83;4.73;;;5.50;99.90;;;;;;5060715;28;20261;-79
2023/12/12 08:01:51;;;;;;;8.07;4.40;;;5.40;99.90;;;;;;5065457;28;20199;-79
2023/12/12 08:04:18;;;;;;;11.07;4.93;;;5.50;99.90;;;;;;5066617;28;20198;-79
2023/12/12 08:06:46;;;;;;;9.67;4.90;;;5.60;99.90;;;;;;5060774;28;20669;-77
2023/12/12 08:09:13;;;;;;;9.13;4.73;;;5.60;99.90;;;;;;5067385;28;20207;-78
2023/12/12 08:11:40;;;;;;;10.63;5.40;;;5.70;99.90;;;;;;5062648;28;20544;-78
2023/12/12 08:14:07;;;;;;;11.07;5.40;;;5.70;99.90;;;;;;5067649;28;20230;-78
2023/12/12 08:16:34;;;;;;;9.90;5.00;;;5.80;99.90;;;;;;5066345;28;20203;-78
2023/12/12 08:19:01;;;;;;;9.20;4.73;;;5.80;99.90;;;;;;5067375;28;20215;-79
2023/12/12 08:21:28;;;;;;;8.43;5.07;;;5.80;99.90;;;;;;5068966;28;20229;-77
2023/12/12 08:23:56;;;;;;;8.47;4.80;;;6.10;99.90;;;;;;5068319;28;20217;-78
2023/12/12 08:26:23;;;;;;;8.87;4.87;;;6.00;99.90;;;;;;5069592;28;20202;-79
2023/12/12 08:28:50;;;;;;;10.00;5.00;;;6.00;99.90;;;;;;5069122;28;20194;-78
2023/12/12 08:31:16;;;;;;;9.43;5.43;;;6.00;99.90;;;;;;5069728;28;20257;-78
2023/12/12 08:33:43;;;;;;;9.87;5.43;;;6.00;99.90;;;;;;5071600;28;20297;-78
2023/12/12 08:36:11;;;;;;;8.40;5.33;;;6.00;99.90;;;;;;5070213;28;20266;-78
2023/12/12 08:38:38;;;;;;;9.40;5.13;;;6.10;99.90;;;;;;5073953;28;20221;-79
2023/12/12 08:41:06;;;;;;;10.30;5.50;;;6.10;99.90;;;;;;5071017;28;20214;-76
2023/12/12 08:43:33;;;;;;;8.73;5.10;;;6.20;99.90;;;;;;5057188;28;20270;-79
2023/12/12 08:46:02;;;;;;;8.83;5.10;;;6.10;99.90;;;;;;5063861;28;20210;-79
2023/12/12 08:48:29;;;;;;;9.53;5.30;;;6.20;99.90;;;;;;5065129;28;20207;-79
2023/12/12 08:50:55;;;;;;;12.27;6.27;;;6.20;99.90;;;;;;5060769;28;20227;-79
2023/12/12 08:53:26;;;;;;;11.03;5.90;;;6.30;99.90;;;;;;5057205;28;20218;-79
2023/12/12 08:55:54;;;;;;;11.00;6.07;;;6.40;99.90;;;;;;5061331;28;20199;-79
2023/12/12 08:58:23;;;;;;;9.47;5.67;;;6.50;99.90;;;;;;5057748;28;20598;-79
2023/12/12 09:00:53;;;;;;;12.37;6.43;;;6.60;99.90;;;;;;5061791;28;20221;-79
2023/12/12 09:03:19;;;;;;;11.03;6.40;;;6.70;99.90;;;;;;5066141;28;20404;-77
2023/12/12 09:05:46;;;;;;;10.93;6.23;;;6.80;99.90;;;;;;5059850;28;20205;-79
2023/12/12 09:08:13;;;;;;;16.87;7.07;;;6.90;99.90;;;;;;5061640;28;20286;-78
2023/12/12 09:10:40;;;;;;;12.33;6.77;;;6.90;99.90;;;;;;5061519;28;20221;-77
2023/12/12 09:13:07;;;;;;;14.20;6.80;;;6.90;99.90;;;;;;5065026;28;20195;-79
2023/12/12 09:15:35;;;;;;;12.63;6.63;;;7.00;99.90;;;;;;5063720;28;20201;-78
2023/12/12 09:18:02;;;;;;;14.13;6.83;;;7.10;99.90;;;;;;5063535;28;20281;-79
2023/12/12 09:20:28;;;;;;;13.77;7.57;;;7.10;99.90;;;;;;5069032;28;20264;-78
2023/12/12 09:22:55;;;;;;;12.57;6.53;;;7.10;99.90;;;;;;5066292;28;20206;-78
2023/12/12 09:25:22;;;;;;;14.37;7.23;;;7.20;99.90;;;;;;5070013;28;20631;-77
2023/12/12 09:27:49;;;;;;;13.70;8.17;;;7.10;99.90;;;;;;5068151;28;20290;-79
2023/12/12 09:30:17;;;;;;;16.97;8.90;;;7.20;99.90;;;;;;5067997;28;20219;-79
2023/12/12 09:32:45;;;;;;;15.87;7.73;;;7.20;99.90;;;;;;5069962;28;20205;-78
2023/12/12 09:35:11;;;;;;;13.83;7.77;;;7.20;99.90;;;;;;5068690;28;20199;-79
2023/12/12 09:37:38;;;;;;;16.63;7.97;;;7.20;99.90;;;;;;5075541;28;20209;-79
2023/12/12 09:40:07;;;;;;;12.87;8.57;;;7.30;99.90;;;;;;5072814;28;20222;-77
2023/12/12 09:42:35;;;;;;;17.07;9.13;;;7.30;99.90;;;;;;5074468;28;20198;-77
2023/12/12 09:45:04;;;;;;;18.60;8.50;;;7.40;99.90;;;;;;5072937;28;20622;-77
2023/12/12 09:47:31;;;;;;;14.20;8.33;;;7.40;99.90;;;;;;5066042;28;20218;-78
2023/12/12 09:50:00;;;;;;;17.63;9.03;;;7.40;99.90;;;;;;5066949;28;20222;-79
2023/12/12 09:52:30;;;;;;;15.93;8.83;;;7.50;99.90;;;;;;5068031;28;20205;-78
2023/12/12 09:54:59;;;;;;;15.83;9.30;;;7.50;99.90;;;;;;5064368;28;20293;-77
2023/12/12 09:57:28;;;;;;;17.73;9.07;;;7.50;99.90;;;;;;5060678;28;20206;-78
2023/12/12 09:59:55;;;;;;;15.90;9.10;;;7.60;99.90;;;;;;5067123;28;20230;-79
2023/12/12 10:02:24;;;;;;;15.30;8.90;;;7.70;99.90;;;;;;5067427;28;20202;-78
2023/12/12 10:04:52;;;;;;;16.20;9.67;;;7.70;99.90;;;;;;5067295;28;20263;-78
2023/12/12 10:07:24;;;;;;;15.93;9.43;;;7.70;99.90;;;;;;5064820;28;20260;-78
2023/12/12 10:09:51;;;;;;;18.03;9.20;;;7.70;99.90;;;;;;5069415;28;20219;-78
2023/12/12 10:12:18;;;;;;;20.23;10.90;;;7.60;99.90;;;;;;5067414;28;20203;-79
2023/12/12 10:14:47;;;;;;;21.23;11.30;;;7.60;99.90;;;;;;5069663;28;20202;-78
2023/12/12 10:17:14;;;;;;;17.93;9.70;;;7.60;99.90;;;;;;5068726;28;20290;-78
2023/12/12 10:19:41;;;;;;;17.60;8.30;;;7.70;99.90;;;;;;5067402;28;20228;-78
2023/12/12 10:22:08;;;;;;;16.63;9.43;;;7.70;99.90;;;;;;5069710;28;20201;-79
2023/12/12 10:24:37;;;;;;;17.23;10.73;;;7.70;99.90;;;;;;5071450;28;20203;-78
2023/12/12 10:27:05;;;;;;;22.13;11.87;;;7.70;99.90;;;;;;5068844;28;20206;-80
2023/12/12 10:29:32;;;;;;;20.90;12.83;;;7.80;99.90;;;;;;5072856;28;20205;-79
2023/12/12 10:31:59;;;;;;;14.70;9.73;;;7.80;99.90;;;;;;5070137;28;20204;-80
2023/12/12 10:34:27;;;;;;;19.00;9.93;;;7.90;99.90;;;;;;5072407;28;20293;-80
2023/12/12 10:36:55;;;;;;;19.07;8.83;;;7.90;99.90;;;;;;5072664;28;20626;-79
2023/12/12 10:39:22;;;;;;;16.63;9.30;;;7.90;99.90;;;;;;5072144;28;20225;-78
2023/12/12 10:41:55;;;;;;;15.90;9.30;;;7.90;99.90;;;;;;5073957;28;20199;-78
2023/12/12 10:44:28;;;;;;;18.83;9.43;;;8.00;99.90;;;;;;5071432;28;20236;-78
2023/12/12 10:46:55;;;;;;;16.90;9.50;;;8.10;99.90;;;;;;5073634;28;20229;-77
2023/12/12 10:49:25;;;;;;;18.07;8.90;;;8.20;99.90;;;;;;5071507;28;20282;-80
2023/12/12 10:51:52;;;;;;;13.73;7.90;;;8.30;99.90;;;;;;5074966;28;20204;-80
2023/12/12 10:54:24;;;;;;;16.47;7.77;;;8.40;99.90;;;;;;5059042;28;20207;-80
2023/12/12 10:56:54;;;;;;;13.00;7.80;;;8.50;99.90;;;;;;5063956;28;20282;-80
2023/12/12 10:59:24;;;;;;;15.87;7.50;;;8.50;99.90;;;;;;5061411;28;20229;-80
2023/12/12 11:01:51;;;;;;;15.40;7.63;;;8.60;99.90;;;;;;5061682;28;20207;-79
2023/12/12 11:04:18;;;;;;;12.83;6.87;;;8.60;99.90;;;;;;5062532;28;20830;-80
2023/12/12 11:06:46;;;;;;;12.37;6.80;;;8.70;99.90;;;;;;5065612;28;20729;-80
2023/12/12 11:09:13;;;;;;;11.23;6.60;;;8.60;99.90;;;;;;5067526;28;20281;-80
2023/12/12 11:11:42;;;;;;;13.53;6.63;;;8.60;99.90;;;;;;5063505;28;20206;-79
2023/12/12 11:14:12;;;;;;;11.30;5.27;;;8.70;99.90;;;;;;5065282;28;20214;-79
2023/12/12 11:16:39;;;;;;;13.93;5.60;;;8.60;99.90;;;;;;5066261;28;20215;-78
2023/12/12 11:19:05;;;;;;;11.03;4.80;;;8.80;99.90;;;;;;5065643;28;20314;-78
2023/12/12 11:21:46;;;;;;;10.47;4.70;;;8.90;99.90;;;;;;5071198;28;20684;-80
2023/12/12 11:24:13;;;;;;;8.80;4.27;;;8.90;99.90;;;;;;5069946;28;20198;-78
2023/12/12 11:26:42;;;;;;;6.10;3.27;;;9.00;1.00;;;;;;5070163;28;20210;-79
2023/12/12 11:29:13;;;;;;;11.97;3.60;;;8.90;99.90;;;;;;5070321;28;20597;-79
2023/12/12 11:31:57;;;;;;;10.53;4.37;;;8.90;1.00;;;;;;5072371;28;20619;-80
2023/12/12 11:34:24;;;;;;;8.23;3.57;;;9.00;1.00;;;;;;5072425;28;20213;-80
2023/12/12 11:36:55;;;;;;;7.57;3.43;;;9.00;99.90;;;;;;5073179;28;20281;-80
2023/12/12 11:39:29;;;;;;;10.57;3.50;;;9.10;1.00;;;;;;5072352;28;20258;-77
2023/12/12 11:41:57;;;;;;;14.00;3.40;;;9.10;1.00;;;;;;5074427;28;20214;-79
2023/12/12 11:44:39;;;;;;;6.60;2.93;;;9.00;99.90;;;;;;5067406;28;20298;-80
2023/12/12 11:47:06;;;;;;;7.03;3.20;;;9.10;99.90;;;;;;5071736;28;20470;-78
2023/12/12 11:49:32;;;;;;;6.47;3.00;;;9.10;1.00;;;;;;5071147;28;20267;-80
2023/12/12 11:51:59;;;;;;;6.47;3.50;;;9.30;1.00;;;;;;5072023;28;20198;-78
2023/12/12 11:54:26;;;;;;;5.70;3.27;;;9.30;99.90;;;;;;5067963;28;20208;-78
2023/12/12 11:56:57;;;;;;;6.17;2.97;;;9.30;1.00;;;;;;5072673;28;20217;-80
2023/12/12 11:59:28;;;;;;;6.00;2.70;;;9.20;1.00;;;;;;5069654;28;20237;-78
2023/12/12 12:01:55;;;;;;;8.13;3.00;;;9.10;99.90;;;;;;5068855;28;20384;-80
2023/12/12 12:04:23;;;;;;;8.40;2.80;;;9.10;63.60;;;;;;5067089;28;20199;-80
2023/12/12 12:06:50;;;;;;;7.20;3.07;;;9.10;3.10;;;;;;5065671;28;20203;-80
2023/12/12 12:09:17;;;;;;;6.30;2.60;;;9.10;1.00;;;;;;5063852;28;20205;-79
2023/12/12 12:11:47;;;;;;;6.20;2.80;;;9.10;1.00;;;;;;5064125;28;20281;-80
2023/12/12 12:14:15;;;;;;;8.07;2.97;;;9.10;1.00;;;;;;5072835;28;20203;-79
2023/12/12 12:16:44;;;;;;;7.60;3.10;;;9.20;1.00;;;;;;5064585;28;20233;-78
2023/12/12 12:19:28;;;;;;;6.43;2.90;;;9.10;99.90;;;;;;5067596;28;20195;-79
2023/12/12 12:21:54;;;;;;;9.53;3.30;;;9.10;1.00;;;;;;5066941;28;20198;-80
2023/12/12 12:24:22;;;;;;;9.20;3.40;;;9.20;25.70;;;;;;5067839;28;20203;-79
2023/12/12 12:26:48;;;;;;;6.93;2.70;;;9.10;36.30;;;;;;5070440;28;20225;-80
2023/12/12 12:29:15;;;;;;;8.90;3.17;;;9.20;1.00;;;;;;5070046;28;20217;-78
2023/12/12 12:31:43;;;;;;;5.40;2.50;;;9.00;94.90;;;;;;5073456;28;20305;-78
2023/12/12 12:34:18;;;;;;;8.67;2.80;;;9.00;99.90;;;;;;5068045;28;20230;-79
2023/12/12 12:36:46;;;;;;;10.60;3.50;;;8.90;1.00;;;;;;5072668;28;20202;-81
2023/12/12 12:39:14;;;;;;;5.63;3.30;;;8.90;99.90;;;;;;5068493;28;20578;-80
2023/12/12 12:41:43;;;;;;;10.03;3.50;;;9.00;99.90;;;;;;5072301;28;20270;-78
2023/12/12 12:44:10;;;;;;;8.50;3.73;;;9.00;99.90;;;;;;5065661;28;20206;-80
2023/12/12 12:46:37;;;;;;;6.43;3.00;;;9.10;1.00;;;;;;5070759;28;20229;-80
2023/12/12 12:49:05;;;;;;;7.47;3.00;;;9.10;1.00;;;;;;5071190;28;20641;-78
2023/12/12 12:51:32;;;;;;;12.40;4.50;;;9.00;1.00;;;;;;5067388;28;20222;-79
2023/12/12 12:53:59;;;;;;;14.23;5.37;;;9.10;1.00;;;;;;5069811;28;20202;-79
2023/12/12 12:56:26;;;;;;;7.63;3.53;;;9.10;1.00;;;;;;5067497;28;20698;-79